Time;durP1;ratioP1;P1;durP2;ratioP2;P2;SDS_P1;SDS_P2;PMS_P1;PMS_P2;Temp;Humidity;BMP_temperature;BMP_pressure;BME280_temperature;BME280_humidity;BME280_pressure;Samples;Min_cycle;Max_cycle;Signal;HPM_P1;HPM_P2
2022/12/02 00:01:13;;;;;;;35.53;14.53;;;5.70;99.90;;;;;;5056123;28;20406;-76
2022/12/02 00:03:39;;;;;;;30.70;13.03;;;5.70;99.90;;;;;;5053407;28;20464;-76
2022/12/02 00:06:13;;;;;;;29.73;14.10;;;5.60;99.90;;;;;;5053077;28;20768;-76
2022/12/02 00:08:39;;;;;;;29.33;12.30;;;5.60;99.90;;;;;;5053333;28;20417;-76
2022/12/02 00:11:37;;;;;;;27.40;12.57;;;5.60;99.90;;;;;;5053185;28;20402;-76
2022/12/02 00:14:13;;;;;;;24.93;12.40;;;5.60;99.90;;;;;;5048162;28;20563;-76
2022/12/02 00:16:38;;;;;;;31.10;12.70;;;5.60;99.90;;;;;;5053047;28;20405;-76
2022/12/02 00:19:04;;;;;;;23.33;14.20;;;5.60;99.90;;;;;;5051825;28;20489;-76
2022/12/02 00:21:30;;;;;;;23.23;11.50;;;5.60;99.90;;;;;;5055035;28;20174;-77
2022/12/02 00:23:55;;;;;;;28.20;13.17;;;5.60;99.90;;;;;;5055582;28;20692;-78
2022/12/02 00:26:21;;;;;;;27.53;13.63;;;5.60;99.90;;;;;;5054449;28;20178;-78
2022/12/02 00:28:46;;;;;;;27.73;12.97;;;5.60;99.90;;;;;;5052874;28;20162;-76
2022/12/02 00:31:12;;;;;;;31.23;13.17;;;5.60;99.90;;;;;;5052569;28;20190;-77
2022/12/02 00:33:37;;;;;;;31.17;12.80;;;5.60;99.90;;;;;;5053430;28;20190;-77
2022/12/02 00:36:03;;;;;;;24.73;12.60;;;5.60;99.90;;;;;;5054780;28;20162;-77
2022/12/02 00:38:29;;;;;;;31.93;12.77;;;5.60;99.90;;;;;;5053709;28;20167;-77
2022/12/02 00:40:54;;;;;;;24.47;12.20;;;5.60;99.90;;;;;;5055407;28;20576;-78
2022/12/02 00:48:48;;;;;;;27.40;11.23;;;5.60;99.90;;;;;;5054176;28;20413;-78
2022/12/02 00:51:13;;;;;;;29.63;14.00;;;5.60;99.90;;;;;;5057131;28;20409;-78
2022/12/02 00:53:39;;;;;;;30.67;14.33;;;5.60;99.90;;;;;;5056345;28;20289;-78
2022/12/02 00:56:04;;;;;;;25.47;13.63;;;5.50;99.90;;;;;;5057341;28;20167;-78
2022/12/02 00:58:30;;;;;;;19.83;11.10;;;5.50;99.90;;;;;;5057796;28;20166;-78
2022/12/02 01:00:55;;;;;;;29.47;14.07;;;5.50;99.90;;;;;;5058190;28;20178;-78
2022/12/02 01:03:21;;;;;;;23.33;12.80;;;5.50;99.90;;;;;;5057372;28;20205;-78
2022/12/02 01:05:47;;;;;;;33.30;14.00;;;5.50;99.90;;;;;;5055944;28;20175;-77
2022/12/02 01:08:12;;;;;;;28.10;12.23;;;5.50;99.90;;;;;;5052244;28;20182;-78
2022/12/02 01:10:38;;;;;;;20.53;11.57;;;5.40;99.90;;;;;;5052243;28;20233;-77
2022/12/02 01:13:03;;;;;;;24.20;13.03;;;5.40;99.90;;;;;;5052223;28;20207;-76
2022/12/02 01:15:29;;;;;;;30.07;12.13;;;5.40;99.90;;;;;;5051868;28;20217;-76
2022/12/02 01:17:55;;;;;;;20.87;11.83;;;5.30;99.90;;;;;;5052253;28;20409;-77
2022/12/02 01:20:20;;;;;;;19.67;11.20;;;5.30;99.90;;;;;;5050788;28;20550;-77
2022/12/02 01:22:46;;;;;;;24.43;12.13;;;5.30;99.90;;;;;;5052020;28;20707;-77
2022/12/02 01:25:11;;;;;;;26.67;11.63;;;5.30;99.90;;;;;;5051755;28;20258;-77
2022/12/02 01:27:37;;;;;;;18.40;11.27;;;5.30;99.90;;;;;;5052082;28;20249;-77
2022/12/02 01:30:03;;;;;;;28.13;12.60;;;5.20;99.90;;;;;;5053756;28;20181;-76
2022/12/02 01:32:28;;;;;;;23.77;11.00;;;5.20;99.90;;;;;;5054136;28;20207;-76
2022/12/02 01:34:54;;;;;;;25.50;12.73;;;5.10;99.90;;;;;;5054434;28;20470;-77
2022/12/02 01:37:19;;;;;;;21.93;10.30;;;5.10;99.90;;;;;;5052902;28;20653;-77
2022/12/02 01:39:45;;;;;;;28.10;10.27;;;5.10;99.90;;;;;;5052189;28;20175;-76
2022/12/02 01:42:10;;;;;;;17.00;10.47;;;5.00;99.90;;;;;;5051675;28;20174;-76
2022/12/02 01:44:37;;;;;;;16.00;8.37;;;5.00;99.90;;;;;;5054644;28;20568;-78
2022/12/02 01:47:03;;;;;;;18.00;10.07;;;5.00;99.90;;;;;;5053124;28;20167;-77
2022/12/02 01:49:28;;;;;;;17.00;9.57;;;4.90;99.90;;;;;;5055559;28;20416;-77
2022/12/02 01:51:54;;;;;;;17.93;9.70;;;4.90;99.90;;;;;;5056242;28;20452;-77
2022/12/02 01:54:20;;;;;;;14.27;8.53;;;4.90;99.90;;;;;;5055324;28;20198;-77
2022/12/02 01:56:45;;;;;;;22.43;8.57;;;4.90;99.90;;;;;;5055693;28;20175;-78
2022/12/02 01:59:13;;;;;;;17.33;8.50;;;4.90;99.90;;;;;;5055766;28;20177;-77
2022/12/02 02:01:39;;;;;;;18.10;8.00;;;4.90;99.90;;;;;;5055700;28;20231;-77
2022/12/02 02:04:05;;;;;;;19.57;9.00;;;4.90;99.90;;;;;;5055599;28;20715;-76
2022/12/02 02:06:35;;;;;;;13.80;7.47;;;4.90;99.90;;;;;;5055363;28;20567;-77
2022/12/02 02:09:01;;;;;;;14.47;8.80;;;4.90;99.90;;;;;;5055452;28;20432;-77
2022/12/02 02:11:27;;;;;;;18.33;9.47;;;4.90;99.90;;;;;;5055417;28;20440;-76
2022/12/02 02:13:54;;;;;;;20.97;9.27;;;4.90;99.90;;;;;;5055423;28;20430;-76
2022/12/02 02:16:19;;;;;;;24.33;9.30;;;4.90;99.90;;;;;;5055265;28;20209;-76
2022/12/02 02:18:45;;;;;;;16.07;8.80;;;4.90;99.90;;;;;;5054072;28;20441;-76
2022/12/02 02:21:17;;;;;;;19.17;9.30;;;4.90;99.90;;;;;;5055328;28;20163;-76
2022/12/02 02:23:42;;;;;;;18.50;9.37;;;4.90;99.90;;;;;;5055113;28;20183;-76
2022/12/02 02:26:08;;;;;;;21.13;9.00;;;5.00;99.90;;;;;;5053621;28;20773;-76
2022/12/02 02:28:34;;;;;;;12.60;7.97;;;5.00;99.90;;;;;;5055186;28;20174;-76
2022/12/02 02:31:00;;;;;;;15.63;9.23;;;5.00;99.90;;;;;;5053714;28;20563;-76
2022/12/02 02:33:28;;;;;;;16.97;9.03;;;5.00;99.90;;;;;;5054969;28;20468;-78
2022/12/02 02:35:54;;;;;;;17.90;9.67;;;5.10;99.90;;;;;;5060811;28;20175;-78
2022/12/02 02:38:23;;;;;;;17.23;7.43;;;5.10;99.90;;;;;;5057650;28;20405;-77
2022/12/02 02:40:49;;;;;;;16.40;7.07;;;5.10;99.90;;;;;;5058553;28;20402;-78
2022/12/02 02:43:17;;;;;;;16.50;8.80;;;5.10;99.90;;;;;;5053821;28;20520;-76
2022/12/02 02:45:43;;;;;;;15.93;10.07;;;5.10;99.90;;;;;;5054548;28;20466;-76
2022/12/02 02:48:10;;;;;;;14.47;7.23;;;5.20;99.90;;;;;;5055176;28;20401;-76
2022/12/02 02:50:40;;;;;;;56.43;28.83;;;5.20;99.90;;;;;;5054668;28;20437;-76
2022/12/02 02:53:06;;;;;;;26.40;14.77;;;5.20;99.90;;;;;;5055997;28;20456;-77
2022/12/02 02:55:33;;;;;;;18.17;9.57;;;5.20;99.90;;;;;;5056294;28;20410;-77
2022/12/02 02:58:14;;;;;;;15.53;8.17;;;5.20;99.90;;;;;;5056096;28;20767;-77
2022/12/02 03:00:56;;;;;;;19.17;10.20;;;5.20;99.90;;;;;;5053876;28;20412;-77
2022/12/02 03:03:24;;;;;;;26.20;10.97;;;5.20;99.90;;;;;;5053178;28;20515;-78
2022/12/02 03:05:52;;;;;;;21.90;10.73;;;5.20;99.90;;;;;;5052960;28;20409;-77
2022/12/02 03:08:20;;;;;;;23.03;12.57;;;5.20;99.90;;;;;;5056783;28;20413;-77
2022/12/02 03:10:46;;;;;;;17.70;10.07;;;5.20;99.90;;;;;;5057484;28;20413;-77
2022/12/02 03:13:12;;;;;;;22.30;12.50;;;5.20;99.90;;;;;;5054896;28;20558;-76
2022/12/02 03:15:38;;;;;;;24.90;11.80;;;5.30;99.90;;;;;;5053932;28;20437;-76
2022/12/02 03:18:04;;;;;;;23.23;13.10;;;5.30;99.90;;;;;;5057759;28;20258;-77
2022/12/02 03:20:30;;;;;;;25.80;12.53;;;5.30;99.90;;;;;;5053853;28;20496;-77
2022/12/02 03:22:55;;;;;;;25.97;11.30;;;5.30;99.90;;;;;;5054990;28;20922;-77
2022/12/02 03:25:21;;;;;;;26.93;12.43;;;5.30;99.90;;;;;;5055776;28;20297;-76
2022/12/02 03:27:46;;;;;;;21.20;10.47;;;5.30;99.90;;;;;;5054090;28;20182;-76
2022/12/02 03:30:12;;;;;;;28.13;13.43;;;5.30;99.90;;;;;;5054005;28;20170;-76
2022/12/02 03:32:38;;;;;;;21.23;11.17;;;5.40;99.90;;;;;;5054908;28;20301;-77
2022/12/02 03:35:05;;;;;;;20.07;10.60;;;5.40;99.90;;;;;;5055398;28;20422;-77
2022/12/02 03:37:30;;;;;;;29.23;12.77;;;5.40;99.90;;;;;;5059475;28;20254;-78
2022/12/02 03:39:56;;;;;;;20.00;10.67;;;5.30;99.90;;;;;;5058819;28;20433;-78
2022/12/02 03:42:21;;;;;;;23.13;11.70;;;5.40;99.90;;;;;;5056764;28;20194;-78
2022/12/02 03:44:48;;;;;;;21.97;11.47;;;5.30;99.90;;;;;;5053863;28;20535;-76
2022/12/02 03:47:14;;;;;;;26.57;12.90;;;5.40;99.90;;;;;;5053803;28;20266;-77
2022/12/02 03:49:40;;;;;;;26.40;11.47;;;5.40;99.90;;;;;;5054403;28;20957;-77
2022/12/02 03:52:05;;;;;;;31.63;13.20;;;5.40;99.90;;;;;;5056291;28;20202;-77
2022/12/02 03:54:31;;;;;;;32.23;17.70;;;5.40;99.90;;;;;;5054301;28;20171;-77
2022/12/02 03:56:56;;;;;;;17.90;10.27;;;5.40;99.90;;;;;;5052504;28;20171;-76
2022/12/02 03:59:26;;;;;;;30.33;13.70;;;5.40;99.90;;;;;;5052161;28;20166;-76
2022/12/02 04:01:51;;;;;;;22.00;10.77;;;5.40;99.90;;;;;;5053432;28;20169;-76
2022/12/02 04:04:17;;;;;;;23.40;11.23;;;5.30;99.90;;;;;;5053026;28;20500;-77
2022/12/02 04:06:42;;;;;;;22.27;11.07;;;5.30;99.90;;;;;;5053461;28;20584;-78
2022/12/02 04:09:08;;;;;;;21.07;10.93;;;5.40;99.90;;;;;;5052096;28;20649;-76
2022/12/02 04:11:33;;;;;;;24.73;11.53;;;5.30;99.90;;;;;;5052179;28;20230;-77
2022/12/02 04:13:59;;;;;;;20.77;12.10;;;5.40;99.90;;;;;;5054507;28;20186;-77
2022/12/02 04:16:25;;;;;;;19.90;12.20;;;5.40;99.90;;;;;;5054668;28;20167;-76
2022/12/02 04:18:50;;;;;;;27.67;14.90;;;5.40;99.90;;;;;;5053117;28;20163;-76
2022/12/02 04:21:16;;;;;;;24.53;10.47;;;5.40;99.90;;;;;;5053328;28;20639;-78
2022/12/02 04:23:41;;;;;;;26.73;11.53;;;5.40;99.90;;;;;;5052905;28;20660;-76
2022/12/02 04:26:07;;;;;;;24.37;11.83;;;5.40;99.90;;;;;;5053958;28;20562;-77
2022/12/02 04:28:32;;;;;;;23.93;10.77;;;5.40;99.90;;;;;;5055893;28;20175;-77
2022/12/02 04:30:58;;;;;;;22.43;11.27;;;5.40;99.90;;;;;;5056190;28;20219;-78
2022/12/02 04:33:23;;;;;;;20.83;10.37;;;5.40;99.90;;;;;;5056331;28;20207;-78
2022/12/02 04:35:49;;;;;;;19.57;9.60;;;5.40;99.90;;;;;;5053768;28;20209;-76
2022/12/02 04:38:15;;;;;;;25.90;13.23;;;5.40;99.90;;;;;;5052776;28;20175;-76
2022/12/02 04:40:40;;;;;;;21.53;11.90;;;5.40;99.90;;;;;;5057165;28;20224;-78
2022/12/02 04:43:09;;;;;;;24.77;13.00;;;5.30;99.90;;;;;;5055804;28;20695;-76
2022/12/02 04:45:34;;;;;;;23.13;10.27;;;5.30;99.90;;;;;;5054361;28;20229;-78
2022/12/02 04:48:00;;;;;;;22.80;12.30;;;5.30;99.90;;;;;;5058573;28;20410;-78
2022/12/02 04:50:25;;;;;;;26.37;12.23;;;5.30;99.90;;;;;;5059289;28;20170;-78
2022/12/02 04:52:51;;;;;;;25.13;12.50;;;5.30;99.90;;;;;;5054613;28;20228;-78
2022/12/02 04:55:16;;;;;;;28.13;14.27;;;5.30;99.90;;;;;;5057214;28;20254;-77
2022/12/02 04:57:43;;;;;;;91.73;38.73;;;5.30;99.90;;;;;;5052319;28;20654;-76
2022/12/02 05:00:09;;;;;;;39.10;19.50;;;5.30;99.90;;;;;;5052353;28;20185;-78
2022/12/02 05:02:35;;;;;;;25.73;11.67;;;5.30;99.90;;;;;;5054185;28;20425;-77
2022/12/02 05:05:00;;;;;;;28.30;13.13;;;5.30;99.90;;;;;;5052862;28;20760;-78
2022/12/02 05:07:26;;;;;;;25.20;11.30;;;5.20;99.90;;;;;;5052241;28;20598;-78
2022/12/02 05:09:51;;;;;;;29.70;13.23;;;5.30;99.90;;;;;;5052245;28;20172;-77
2022/12/02 05:12:17;;;;;;;28.23;11.10;;;5.20;99.90;;;;;;5050759;28;20209;-78
2022/12/02 05:14:43;;;;;;;27.73;13.80;;;5.20;99.90;;;;;;5051880;28;20166;-76
2022/12/02 05:17:08;;;;;;;29.43;11.77;;;5.20;99.90;;;;;;5052134;28;20159;-76
2022/12/02 05:19:34;;;;;;;32.67;12.37;;;5.20;99.90;;;;;;5052063;28;20405;-76
2022/12/02 05:21:59;;;;;;;25.20;11.63;;;5.20;99.90;;;;;;5051789;28;20586;-76
2022/12/02 05:24:25;;;;;;;24.17;12.07;;;5.20;99.90;;;;;;5051522;28;20588;-76
2022/12/02 05:26:50;;;;;;;26.90;12.47;;;5.20;99.90;;;;;;5052006;28;20659;-76
2022/12/02 05:29:16;;;;;;;21.63;11.30;;;5.20;99.90;;;;;;5051918;28;20257;-76
2022/12/02 05:31:41;;;;;;;27.67;12.93;;;5.20;99.90;;;;;;5051704;28;20202;-76
2022/12/02 05:34:08;;;;;;;27.57;12.40;;;5.20;99.90;;;;;;5051723;28;20217;-76
2022/12/02 05:36:33;;;;;;;21.73;10.90;;;5.20;99.90;;;;;;5051673;28;20484;-76
2022/12/02 05:38:59;;;;;;;29.67;13.37;;;5.30;99.90;;;;;;5051848;28;20170;-76
2022/12/02 05:41:24;;;;;;;33.23;13.87;;;5.20;99.90;;;;;;5051809;28;20167;-76
2022/12/02 05:43:50;;;;;;;23.00;11.80;;;5.30;99.90;;;;;;5051717;28;20183;-76
2022/12/02 05:46:20;;;;;;;28.23;13.23;;;5.30;99.90;;;;;;5051502;28;20169;-76
2022/12/02 05:48:47;;;;;;;19.03;11.47;;;5.30;99.90;;;;;;5051733;28;20734;-76
2022/12/02 05:51:19;;;;;;;23.73;12.33;;;5.30;99.90;;;;;;5051724;28;20763;-76
2022/12/02 05:53:46;;;;;;;20.13;10.30;;;5.20;99.90;;;;;;5050355;28;20874;-76
2022/12/02 05:56:30;;;;;;;25.50;11.87;;;5.20;99.90;;;;;;5051386;28;20928;-76
2022/12/02 05:59:07;;;;;;;100.07;48.13;;;5.20;99.90;;;;;;5050423;28;20401;-76
2022/12/02 06:01:38;;;;;;;26.63;13.70;;;5.20;99.90;;;;;;5051712;28;20895;-76
2022/12/02 06:04:10;;;;;;;32.20;14.20;;;5.20;99.90;;;;;;5051551;28;20425;-76
2022/12/02 06:06:36;;;;;;;26.80;13.10;;;5.20;99.90;;;;;;5050202;28;20741;-76
2022/12/02 06:09:01;;;;;;;23.23;12.07;;;5.20;99.90;;;;;;5051658;28;20405;-76
2022/12/02 06:11:33;;;;;;;25.97;12.47;;;5.20;99.90;;;;;;5050186;28;20175;-76
2022/12/02 06:14:02;;;;;;;24.33;13.10;;;5.20;99.90;;;;;;5050143;28;20278;-76
2022/12/02 06:16:30;;;;;;;25.07;12.70;;;5.30;99.90;;;;;;5051181;28;20406;-76
2022/12/02 06:18:58;;;;;;;27.13;11.80;;;5.20;99.90;;;;;;5050214;28;20504;-76
2022/12/02 06:21:25;;;;;;;20.90;10.27;;;5.30;99.90;;;;;;5050119;28;20413;-76
2022/12/02 06:23:54;;;;;;;28.73;12.57;;;5.30;99.90;;;;;;5051296;28;20433;-76
2022/12/02 06:26:21;;;;;;;31.97;14.17;;;5.30;99.90;;;;;;5051181;28;20413;-76
2022/12/02 06:28:51;;;;;;;21.93;11.43;;;5.20;99.90;;;;;;5051506;28;20602;-76
2022/12/02 06:31:19;;;;;;;29.83;13.43;;;5.20;99.90;;;;;;5051263;28;20520;-76
2022/12/02 06:33:48;;;;;;;28.57;12.20;;;5.10;99.90;;;;;;5051256;28;20963;-76
2022/12/02 06:36:18;;;;;;;26.53;13.00;;;5.10;99.90;;;;;;5054107;28;20393;-76
2022/12/02 06:38:49;;;;;;;29.43;11.97;;;5.10;99.90;;;;;;5053793;28;20480;-76
2022/12/02 06:41:23;;;;;;;30.67;11.60;;;5.10;99.90;;;;;;5053807;28;20416;-76
2022/12/02 06:46:35;;;;;;;25.50;11.83;;;5.20;99.90;;;;;;5054975;28;20400;-76
2022/12/02 06:49:18;;;;;;;27.73;12.70;;;5.20;99.90;;;;;;5054873;28;20413;-76
2022/12/02 06:51:43;;;;;;;23.13;10.40;;;5.20;99.90;;;;;;5054697;28;20437;-76
2022/12/02 06:54:19;;;;;;;28.47;13.30;;;5.20;99.90;;;;;;5054537;28;20440;-76
2022/12/02 06:56:47;;;;;;;28.10;11.90;;;5.10;99.90;;;;;;5053502;28;20178;-76
2022/12/02 06:59:17;;;;;;;24.33;11.10;;;5.10;99.90;;;;;;5054682;28;20437;-76
2022/12/02 07:01:43;;;;;;;25.77;11.07;;;5.10;99.90;;;;;;5054831;28;20406;-76
2022/12/02 07:04:09;;;;;;;20.97;9.63;;;5.10;99.90;;;;;;5053169;28;20463;-76
2022/12/02 07:06:39;;;;;;;28.07;12.73;;;5.10;99.90;;;;;;5054325;28;20492;-76
2022/12/02 07:09:28;;;;;;;22.00;11.17;;;5.10;99.90;;;;;;5054502;28;20201;-76
2022/12/02 07:11:57;;;;;;;21.30;10.10;;;5.10;99.90;;;;;;5054398;28;20560;-76
2022/12/02 07:14:50;;;;;;;23.90;10.60;;;5.10;99.90;;;;;;5054095;28;20405;-76
2022/12/02 07:17:36;;;;;;;32.63;12.00;;;5.10;99.90;;;;;;5054333;28;20390;-76
2022/12/02 07:20:05;;;;;;;22.30;10.53;;;5.10;99.90;;;;;;5054247;28;20535;-76
2022/12/02 07:22:43;;;;;;;29.33;11.90;;;5.10;99.90;;;;;;5054128;28;20422;-76
2022/12/02 07:25:09;;;;;;;22.10;11.83;;;5.10;99.90;;;;;;5053931;28;20404;-75
2022/12/02 07:27:40;;;;;;;25.43;12.40;;;5.20;99.90;;;;;;5054099;28;20405;-75
2022/12/02 07:30:20;;;;;;;22.60;10.90;;;5.10;99.90;;;;;;5054016;28;20637;-75
2022/12/02 07:32:46;;;;;;;26.20;12.50;;;5.10;99.90;;;;;;5053921;28;20452;-75
2022/12/02 07:35:11;;;;;;;21.93;11.27;;;5.20;99.90;;;;;;5052371;28;20459;-75
2022/12/02 07:37:37;;;;;;;27.30;11.03;;;5.20;99.90;;;;;;5053971;28;20528;-76
2022/12/02 07:40:02;;;;;;;26.47;11.53;;;5.30;99.90;;;;;;5054200;28;20171;-77
2022/12/02 07:42:28;;;;;;;31.80;10.87;;;5.30;99.90;;;;;;5052522;28;20668;-76
2022/12/02 07:44:53;;;;;;;26.10;12.40;;;5.30;99.90;;;;;;5053546;28;20656;-76
2022/12/02 07:47:19;;;;;;;30.83;11.20;;;5.40;99.90;;;;;;5053598;28;20171;-75
2022/12/02 07:49:44;;;;;;;28.63;11.70;;;5.40;99.90;;;;;;5053799;28;20220;-76
2022/12/02 07:52:10;;;;;;;24.90;11.10;;;5.30;99.90;;;;;;5052336;28;20687;-76
2022/12/02 07:54:35;;;;;;;32.30;13.03;;;5.40;99.90;;;;;;5052112;28;20167;-76
2022/12/02 07:57:01;;;;;;;27.73;12.10;;;5.40;99.90;;;;;;5053516;28;20172;-76
2022/12/02 07:59:26;;;;;;;22.07;11.43;;;5.40;99.90;;;;;;5053582;28;20167;-76
2022/12/02 08:01:52;;;;;;;34.57;15.33;;;5.40;99.90;;;;;;5053518;28;20632;-76
2022/12/02 08:04:17;;;;;;;29.73;12.77;;;5.40;99.90;;;;;;5053118;28;20529;-76
2022/12/02 08:06:43;;;;;;;29.10;12.90;;;5.40;99.90;;;;;;5053413;28;20178;-76
2022/12/02 08:09:09;;;;;;;43.33;14.93;;;5.40;99.90;;;;;;5053292;28;20182;-75
2022/12/02 08:11:35;;;;;;;28.00;12.57;;;5.40;99.90;;;;;;5053167;28;20171;-75
2022/12/02 08:14:00;;;;;;;30.80;13.90;;;5.40;99.90;;;;;;5051739;28;20437;-76
2022/12/02 08:16:26;;;;;;;41.97;15.77;;;5.30;99.90;;;;;;5051638;28;20417;-76
2022/12/02 08:18:51;;;;;;;35.77;14.27;;;5.30;99.90;;;;;;5053059;28;20577;-75
2022/12/02 08:21:17;;;;;;;32.80;13.63;;;5.20;99.90;;;;;;5053069;28;20174;-76
2022/12/02 08:23:42;;;;;;;38.00;14.93;;;5.20;99.90;;;;;;5051709;28;20221;-76
2022/12/02 08:26:08;;;;;;;34.80;12.63;;;5.30;99.90;;;;;;5051643;28;20171;-76
2022/12/02 08:28:33;;;;;;;33.23;17.60;;;5.30;99.90;;;;;;5051723;28;20261;-76
2022/12/02 08:30:59;;;;;;;32.90;12.20;;;5.30;99.90;;;;;;5051429;28;20290;-75
2022/12/02 08:33:24;;;;;;;24.77;12.93;;;5.30;99.90;;;;;;5051431;28;20206;-76
2022/12/02 08:35:50;;;;;;;27.80;14.90;;;5.30;99.90;;;;;;5052529;28;20167;-76
2022/12/02 08:38:16;;;;;;;31.07;12.37;;;5.20;99.90;;;;;;5052811;28;20610;-76
2022/12/02 08:40:41;;;;;;;34.60;13.37;;;5.30;99.90;;;;;;5051416;28;20173;-76
2022/12/02 08:43:07;;;;;;;34.77;15.07;;;5.30;99.90;;;;;;5051277;28;20233;-76
2022/12/02 08:45:32;;;;;;;31.20;13.93;;;5.30;99.90;;;;;;5052435;28;20194;-76
2022/12/02 08:47:58;;;;;;;30.43;17.30;;;5.20;99.90;;;;;;5052554;28;20166;-76
2022/12/02 08:50:24;;;;;;;40.17;15.33;;;5.20;99.90;;;;;;5052679;28;20175;-76
2022/12/02 08:52:49;;;;;;;31.90;14.40;;;5.30;99.90;;;;;;5052397;28;20574;-76
2022/12/02 08:55:15;;;;;;;37.77;13.70;;;5.20;99.90;;;;;;5052151;28;20397;-76
2022/12/02 08:57:40;;;;;;;30.53;13.23;;;5.20;99.90;;;;;;5051898;28;20166;-76
2022/12/02 09:00:07;;;;;;;46.20;14.47;;;5.30;99.90;;;;;;5052347;28;20212;-76
2022/12/02 09:02:33;;;;;;;39.30;15.53;;;5.20;99.90;;;;;;5052223;28;20190;-76
2022/12/02 09:04:59;;;;;;;26.53;13.53;;;5.20;99.90;;;;;;5052039;28;20424;-76
2022/12/02 09:07:24;;;;;;;39.17;14.37;;;5.20;99.90;;;;;;5052180;28;20409;-76
2022/12/02 09:09:50;;;;;;;35.63;12.87;;;5.20;99.90;;;;;;5050935;28;20202;-76
2022/12/02 09:12:15;;;;;;;37.80;14.50;;;5.20;99.90;;;;;;5052062;28;20190;-76
2022/12/02 09:14:41;;;;;;;38.17;14.97;;;5.20;99.90;;;;;;5051920;28;20199;-76
2022/12/02 09:17:06;;;;;;;22.50;12.17;;;5.20;99.90;;;;;;5052222;28;20607;-76
2022/12/02 09:19:32;;;;;;;41.00;14.90;;;5.20;99.90;;;;;;5052145;28;20201;-76
2022/12/02 09:21:57;;;;;;;33.17;13.27;;;5.20;99.90;;;;;;5051962;28;20579;-76
2022/12/02 09:24:23;;;;;;;31.60;13.23;;;5.20;99.90;;;;;;5051765;28;20175;-76
2022/12/02 09:26:49;;;;;;;30.43;13.30;;;5.20;99.90;;;;;;5051914;28;20167;-76
2022/12/02 09:29:14;;;;;;;26.47;11.97;;;5.20;99.90;;;;;;5051945;28;20203;-76
2022/12/02 09:31:40;;;;;;;37.00;12.73;;;5.30;99.90;;;;;;5050424;28;20187;-76
2022/12/02 09:34:05;;;;;;;40.70;14.07;;;5.30;99.90;;;;;;5051737;28;20183;-76
2022/12/02 09:36:31;;;;;;;37.10;16.47;;;5.30;99.90;;;;;;5051859;28;20517;-76
2022/12/02 09:38:56;;;;;;;36.67;14.93;;;5.40;99.90;;;;;;5051668;28;20163;-76
2022/12/02 09:41:22;;;;;;;37.47;13.40;;;5.40;99.90;;;;;;5051607;28;20164;-76
2022/12/02 09:43:48;;;;;;;30.70;13.60;;;5.40;99.90;;;;;;5051632;28;20186;-76
2022/12/02 09:46:14;;;;;;;27.17;12.57;;;5.40;99.90;;;;;;5051650;28;20170;-76
2022/12/02 09:48:39;;;;;;;36.20;14.30;;;5.40;99.90;;;;;;5051680;28;20921;-76
2022/12/02 09:51:06;;;;;;;36.53;12.07;;;5.50;99.90;;;;;;5051594;28;20182;-76
2022/12/02 09:53:35;;;;;;;26.20;11.50;;;5.60;99.90;;;;;;5051476;28;20194;-76
2022/12/02 09:56:00;;;;;;;35.03;14.37;;;5.70;99.90;;;;;;5051257;28;20409;-76
2022/12/02 09:58:27;;;;;;;30.60;13.87;;;5.70;99.90;;;;;;5051548;28;20405;-76
2022/12/02 10:00:53;;;;;;;19.77;11.17;;;5.70;99.90;;;;;;5051536;28;20186;-76
2022/12/02 10:03:23;;;;;;;24.23;12.73;;;5.80;99.90;;;;;;5051807;28;20517;-76
2022/12/02 10:05:49;;;;;;;26.00;11.10;;;5.70;99.90;;;;;;5051308;28;20489;-76
2022/12/02 10:08:22;;;;;;;33.47;13.97;;;5.70;99.90;;;;;;5051431;28;20409;-76
2022/12/02 10:10:49;;;;;;;30.90;12.80;;;5.80;99.90;;;;;;5055472;28;20173;-76
2022/12/02 10:13:17;;;;;;;30.83;13.83;;;5.80;99.90;;;;;;5055274;28;20535;-76
2022/12/02 10:15:43;;;;;;;26.80;13.00;;;5.80;99.90;;;;;;5055127;28;20746;-76
2022/12/02 10:18:29;;;;;;;28.23;13.20;;;5.80;99.90;;;;;;5054074;28;20424;-76
2022/12/02 10:20:55;;;;;;;39.07;14.47;;;5.80;99.90;;;;;;5055128;28;20421;-76
2022/12/02 10:23:26;;;;;;;32.53;14.13;;;5.80;99.90;;;;;;5055162;28;20427;-76
2022/12/02 10:26:11;;;;;;;36.93;13.63;;;5.80;99.90;;;;;;5054973;28;20702;-76
2022/12/02 10:28:39;;;;;;;35.80;14.43;;;5.90;99.90;;;;;;5054014;28;20914;-76
2022/12/02 10:31:13;;;;;;;27.50;15.67;;;5.80;99.90;;;;;;5053644;28;20441;-76
2022/12/02 10:33:56;;;;;;;28.77;13.67;;;5.80;99.90;;;;;;5055234;28;20464;-75
2022/12/02 10:36:39;;;;;;;26.27;12.80;;;5.80;99.90;;;;;;5054909;28;20401;-76
2022/12/02 10:39:20;;;;;;;42.07;14.17;;;5.70;99.90;;;;;;5053547;28;20409;-76
2022/12/02 10:41:47;;;;;;;34.27;14.77;;;5.70;99.90;;;;;;5054909;28;20405;-76
2022/12/02 10:44:21;;;;;;;29.63;12.93;;;5.70;99.90;;;;;;5054564;28;20840;-76
2022/12/02 10:46:47;;;;;;;23.50;13.07;;;5.70;99.90;;;;;;5054889;28;20898;-76
2022/12/02 10:49:33;;;;;;;17.40;9.80;;;5.70;99.90;;;;;;5054755;28;20401;-76
2022/12/02 10:52:03;;;;;;;28.77;13.10;;;5.70;99.90;;;;;;5054534;28;20273;-76
2022/12/02 10:54:32;;;;;;;38.00;15.50;;;5.60;99.90;;;;;;5054206;28;20506;-76
2022/12/02 10:57:01;;;;;;;23.20;11.83;;;5.70;99.90;;;;;;5054714;28;20409;-76
2022/12/02 10:59:28;;;;;;;20.33;12.10;;;5.70;99.90;;;;;;5054471;28;20397;-76
2022/12/02 11:01:54;;;;;;;25.83;12.13;;;5.70;99.90;;;;;;5054546;28;20409;-76
2022/12/02 11:04:19;;;;;;;24.03;13.07;;;5.70;99.90;;;;;;5052827;28;20513;-76
2022/12/02 11:06:46;;;;;;;30.20;14.90;;;5.70;99.90;;;;;;5054467;28;20182;-76
2022/12/02 11:09:21;;;;;;;32.50;14.47;;;5.80;99.90;;;;;;5054421;28;20174;-76
2022/12/02 11:11:48;;;;;;;29.17;12.50;;;5.80;99.90;;;;;;5053071;28;20790;-76
2022/12/02 11:14:39;;;;;;;29.77;14.50;;;5.80;99.90;;;;;;5054039;28;20957;-76
2022/12/02 11:17:10;;;;;;;26.87;13.57;;;5.90;99.90;;;;;;5054088;28;20779;-76
2022/12/02 11:19:36;;;;;;;32.70;13.90;;;5.90;99.90;;;;;;5054138;28;20401;-76
2022/12/02 11:22:02;;;;;;;25.80;14.20;;;5.80;99.90;;;;;;5053431;28;20402;-76
2022/12/02 11:24:27;;;;;;;32.33;15.17;;;5.80;99.90;;;;;;5053811;28;20683;-76
2022/12/02 11:27:01;;;;;;;34.30;12.40;;;5.80;99.90;;;;;;5054073;28;20428;-76
2022/12/02 11:30:00;;;;;;;27.23;12.27;;;5.80;99.90;;;;;;5053913;28;20190;-76
2022/12/02 11:32:25;;;;;;;24.73;12.00;;;5.80;99.90;;;;;;5055849;28;21040;-77
2022/12/02 11:34:54;;;;;;;26.90;12.20;;;5.80;99.90;;;;;;5055059;28;20452;-78
2022/12/02 11:37:25;;;;;;;26.57;13.33;;;5.80;99.90;;;;;;5056352;28;20167;-77
2022/12/02 11:40:01;;;;;;;23.20;13.17;;;5.80;99.90;;;;;;5054852;28;20415;-77
2022/12/02 11:42:31;;;;;;;25.77;12.87;;;5.80;99.90;;;;;;5056333;28;20918;-77
2022/12/02 11:45:15;;;;;;;23.97;12.70;;;5.70;99.90;;;;;;5056299;28;20424;-78
2022/12/02 11:47:53;;;;;;;30.03;12.77;;;5.60;99.90;;;;;;5054767;28;20409;-77
2022/12/02 11:50:24;;;;;;;25.93;12.27;;;5.60;99.90;;;;;;5055746;28;20405;-77
2022/12/02 11:52:53;;;;;;;19.50;11.53;;;5.70;99.90;;;;;;5053835;28;20452;-77
2022/12/02 11:55:39;;;;;;;25.87;11.30;;;5.70;99.90;;;;;;5055148;28;20417;-78
2022/12/02 11:58:20;;;;;;;18.47;10.83;;;5.70;99.90;;;;;;5060177;28;20397;-77
2022/12/02 12:01:03;;;;;;;27.20;11.70;;;5.70;99.90;;;;;;5053735;28;20404;-77
2022/12/02 12:03:29;;;;;;;25.83;13.20;;;5.70;99.90;;;;;;5053489;28;20555;-76
2022/12/02 12:06:10;;;;;;;23.80;11.90;;;5.70;99.90;;;;;;5053087;28;20433;-76
2022/12/02 12:08:48;;;;;;;18.50;10.67;;;5.80;99.90;;;;;;5053302;28;20296;-76
2022/12/02 12:11:18;;;;;;;23.10;12.03;;;5.70;99.90;;;;;;5053292;28;20401;-77
2022/12/02 12:14:00;;;;;;;19.47;11.20;;;5.70;99.90;;;;;;5053319;28;20452;-77
2022/12/02 12:16:27;;;;;;;23.70;10.40;;;5.70;99.90;;;;;;5053349;28;20390;-78
2022/12/02 12:18:53;;;;;;;24.83;12.00;;;5.80;99.90;;;;;;5053092;28;20394;-76
2022/12/02 12:21:31;;;;;;;26.83;12.53;;;5.80;99.90;;;;;;5053049;28;20785;-76
2022/12/02 12:24:29;;;;;;;22.07;12.37;;;5.80;99.90;;;;;;5053128;28;20255;-76
2022/12/02 12:27:03;;;;;;;23.67;11.90;;;5.70;99.90;;;;;;5040837;28;20903;-76
2022/12/02 12:29:31;;;;;;;24.97;10.60;;;5.60;99.90;;;;;;5052829;28;20429;-77
2022/12/02 12:31:57;;;;;;;17.67;10.50;;;5.60;99.90;;;;;;5050888;28;20988;-76
2022/12/02 12:34:22;;;;;;;19.50;9.80;;;5.60;99.90;;;;;;5052641;28;20418;-77
2022/12/02 12:36:48;;;;;;;21.10;10.73;;;5.60;99.90;;;;;;5053188;28;20171;-77
2022/12/02 12:39:15;;;;;;;25.33;12.27;;;5.60;99.90;;;;;;5053486;28;20178;-77
2022/12/02 12:41:40;;;;;;;27.23;12.60;;;5.60;99.90;;;;;;5053589;28;20398;-77
2022/12/02 12:44:06;;;;;;;17.40;10.20;;;5.60;99.90;;;;;;5055125;28;20423;-77
2022/12/02 12:46:32;;;;;;;22.40;11.77;;;5.60;99.90;;;;;;5054742;28;20209;-77
2022/12/02 12:48:58;;;;;;;26.13;11.10;;;5.50;99.90;;;;;;5055579;28;20213;-77
2022/12/02 12:51:24;;;;;;;21.97;11.60;;;5.60;99.90;;;;;;5054650;28;20163;-77